createdAt,value
2018-10-02T00:00:56.339Z,9.02
2018-10-02T00:01:56.323Z,9.02
2018-10-02T00:02:56.300Z,8.89
2018-10-02T00:03:56.279Z,9.05
2018-10-02T00:04:56.262Z,8.99
2018-10-02T00:05:56.241Z,8.96
2018-10-02T00:06:56.217Z,8.99
2018-10-02T00:07:56.194Z,8.94
2018-10-02T00:08:56.177Z,8.89
2018-10-02T00:09:56.164Z,8.92
2018-10-02T00:10:56.135Z,8.91
2018-10-02T00:11:56.113Z,8.92
2018-10-02T00:12:56.094Z,8.84
2018-10-02T00:13:56.071Z,8.87
2018-10-02T00:14:56.051Z,8.89
2018-10-02T00:15:56.026Z,8.96
2018-10-02T00:16:56.007Z,8.89
2018-10-02T00:17:55.990Z,8.83
2018-10-02T00:18:55.973Z,8.80
2018-10-02T00:19:55.951Z,8.81
2018-10-02T00:20:55.925Z,8.87
2018-10-02T00:21:55.904Z,8.79
2018-10-02T00:22:55.883Z,8.83
2018-10-02T00:23:55.866Z,8.86
2018-10-02T00:24:55.842Z,8.83
2018-10-02T00:25:55.818Z,8.81
2018-10-02T00:26:55.820Z,8.73
2018-10-02T00:27:55.779Z,8.71
2018-10-02T00:28:55.762Z,8.74
2018-10-02T00:29:55.738Z,8.73
2018-10-02T00:30:55.716Z,8.71
2018-10-02T00:31:55.782Z,8.74
2018-10-02T00:32:55.674Z,8.73
2018-10-02T00:33:55.653Z,8.73
2018-10-02T00:34:55.632Z,8.74
2018-10-02T00:35:55.611Z,8.71
2018-10-02T00:36:55.596Z,8.74
2018-10-02T00:37:55.570Z,8.74
2018-10-02T00:38:55.558Z,8.73
2018-10-02T00:39:55.529Z,8.76
2018-10-02T00:40:55.514Z,8.73
2018-10-02T00:41:55.488Z,8.71
2018-10-02T00:42:55.469Z,8.71
2018-10-02T00:43:55.450Z,8.71
2018-10-02T00:44:55.425Z,8.73
2018-10-02T00:45:55.408Z,8.68
2018-10-02T00:46:55.387Z,8.61
2018-10-02T00:47:55.364Z,8.68
2018-10-02T00:48:55.344Z,8.50
2018-10-02T00:49:55.318Z,8.53
2018-10-02T00:50:55.298Z,8.58
2018-10-02T00:51:55.278Z,8.53
2018-10-02T00:52:55.258Z,8.47
2018-10-02T00:53:55.240Z,8.45
2018-10-02T00:54:55.214Z,8.45
2018-10-02T00:55:55.202Z,8.50
2018-10-02T00:56:55.174Z,8.55
2018-10-02T00:57:55.153Z,8.53
2018-10-02T00:58:55.130Z,8.55
2018-10-02T00:59:55.108Z,8.52
2018-10-02T01:00:55.093Z,8.53
2018-10-02T01:01:55.076Z,8.58
2018-10-02T01:02:55.046Z,8.58
2018-10-02T01:03:55.026Z,8.44
2018-10-02T01:04:55.005Z,8.55
2018-10-02T01:05:54.986Z,8.50
2018-10-02T01:06:54.964Z,8.50
2018-10-02T01:07:54.941Z,8.55
2018-10-02T01:08:54.924Z,8.52
2018-10-02T01:09:54.902Z,8.56
2018-10-02T01:10:54.881Z,8.50
2018-10-02T01:11:54.864Z,8.53
2018-10-02T01:12:54.838Z,8.52
2018-10-02T01:13:54.813Z,8.37
2018-10-02T01:14:54.792Z,8.48
2018-10-02T01:15:54.775Z,8.48
2018-10-02T01:16:54.756Z,8.48
2018-10-02T01:17:54.732Z,8.47
2018-10-02T01:18:54.714Z,8.50
2018-10-02T01:19:54.687Z,8.48
2018-10-02T01:20:54.667Z,8.52
2018-10-02T01:21:54.648Z,8.40
2018-10-02T01:22:54.623Z,8.44
2018-10-02T01:23:54.611Z,8.36
2018-10-02T01:24:54.588Z,8.36
2018-10-02T01:25:54.565Z,8.40
2018-10-02T01:26:54.544Z,8.38
2018-10-02T01:27:54.522Z,8.40
2018-10-02T01:28:54.511Z,8.43
2018-10-02T01:29:54.482Z,8.37
2018-10-02T01:30:54.465Z,8.33
2018-10-02T01:31:54.440Z,8.33
2018-10-02T01:32:54.416Z,8.23
2018-10-02T01:33:54.402Z,8.30
2018-10-02T01:34:54.374Z,8.29
2018-10-02T01:35:54.350Z,8.28
2018-10-02T01:36:54.341Z,8.23
2018-10-02T01:37:54.310Z,8.10
2018-10-02T01:38:54.293Z,8.26
2018-10-02T01:39:54.269Z,8.25
2018-10-02T01:40:54.248Z,8.22
2018-10-02T01:41:54.224Z,8.26
2018-10-02T01:42:54.208Z,8.19
2018-10-02T01:43:54.179Z,8.16
2018-10-02T01:44:54.164Z,8.16
2018-10-02T01:45:54.140Z,8.12
2018-10-02T01:46:54.125Z,8.12
2018-10-02T01:47:54.100Z,8.22
2018-10-02T01:48:54.081Z,8.19
2018-10-02T01:49:54.054Z,8.10
2018-10-02T01:50:54.036Z,8.15
2018-10-02T01:51:54.012Z,8.11
2018-10-02T01:52:53.995Z,8.23
2018-10-02T01:53:53.973Z,8.20
2018-10-02T01:54:53.948Z,8.18
2018-10-02T01:55:53.932Z,8.19
2018-10-02T01:56:53.908Z,8.23
2018-10-02T01:57:53.887Z,8.29
2018-10-02T01:58:53.866Z,8.12
2018-10-02T01:59:53.842Z,8.22
2018-10-02T02:00:53.824Z,8.25
2018-10-02T02:01:53.799Z,8.15
2018-10-02T02:02:53.780Z,8.10
2018-10-02T02:03:53.755Z,8.10
2018-10-02T02:04:53.739Z,8.10
2018-10-02T02:05:53.717Z,8.18
2018-10-02T02:06:53.692Z,8.12
2018-10-02T02:07:53.679Z,8.10
2018-10-02T02:08:53.660Z,8.04
2018-10-02T02:09:53.629Z,8.11
2018-10-02T02:10:53.614Z,8.02
2018-10-02T02:11:53.588Z,8.12
2018-10-02T02:12:53.568Z,8.08
2018-10-02T02:13:53.544Z,8.11
2018-10-02T02:14:53.529Z,8.05
2018-10-02T02:15:53.507Z,8.04
2018-10-02T02:16:53.480Z,8.01
2018-10-02T02:17:53.464Z,8.00
2018-10-02T02:18:53.440Z,8.01
2018-10-02T02:19:53.420Z,7.98
2018-10-02T02:20:53.404Z,7.87
2018-10-02T02:21:53.374Z,7.85
2018-10-02T02:22:53.353Z,7.85
2018-10-02T02:23:53.330Z,7.87
2018-10-02T02:24:53.308Z,7.86
2018-10-02T02:25:53.292Z,7.85
2018-10-02T02:26:53.276Z,7.82
2018-10-02T02:27:53.250Z,7.82
2018-10-02T02:28:53.231Z,7.86
2018-10-02T02:29:53.202Z,7.87
2018-10-02T02:30:53.186Z,7.83
2018-10-02T02:31:53.158Z,7.93
2018-10-02T02:32:53.141Z,7.87
2018-10-02T02:33:53.117Z,7.92
2018-10-02T02:34:53.097Z,7.85
2018-10-02T02:35:53.074Z,7.86
2018-10-02T02:36:53.061Z,7.85
2018-10-02T02:37:53.037Z,7.90
2018-10-02T02:38:53.010Z,7.89
2018-10-02T02:39:52.988Z,7.97
2018-10-02T02:40:52.969Z,7.85
2018-10-02T02:41:52.948Z,7.93
2018-10-02T02:42:52.924Z,7.82
2018-10-02T02:43:52.908Z,7.87
2018-10-02T02:44:52.890Z,7.90
2018-10-02T02:45:52.857Z,7.90
2018-10-02T02:46:52.840Z,7.79
2018-10-02T02:47:52.819Z,7.79
2018-10-02T02:48:52.807Z,7.77
2018-10-02T02:49:52.777Z,7.85
2018-10-02T02:50:52.755Z,7.86
2018-10-02T02:51:52.735Z,7.75
2018-10-02T02:52:52.711Z,7.79
2018-10-02T02:53:52.696Z,7.77
2018-10-02T02:54:52.666Z,7.79
2018-10-02T02:55:52.648Z,7.82
2018-10-02T02:56:52.625Z,7.72
2018-10-02T02:57:52.605Z,7.75
2018-10-02T02:58:52.584Z,7.67
2018-10-02T02:59:52.561Z,7.75
2018-10-02T03:00:52.537Z,7.74
2018-10-02T03:01:52.517Z,7.71
2018-10-02T03:02:52.502Z,7.79
2018-10-02T03:03:52.473Z,7.69
2018-10-02T03:04:52.457Z,7.71
2018-10-02T03:05:52.438Z,7.74
2018-10-02T03:06:52.408Z,7.69
2018-10-02T03:07:52.391Z,7.74
2018-10-02T03:08:52.367Z,7.74
2018-10-02T03:09:52.346Z,7.75
2018-10-02T03:10:52.324Z,7.71
2018-10-02T03:11:52.304Z,7.77
2018-10-02T03:12:52.295Z,7.75
2018-10-02T03:13:52.261Z,7.67
2018-10-02T03:14:52.239Z,7.77
2018-10-02T03:15:52.221Z,7.74
2018-10-02T03:16:52.196Z,7.74
2018-10-02T03:17:52.175Z,7.74
2018-10-02T03:18:52.152Z,7.75
2018-10-02T03:19:52.132Z,7.68
2018-10-02T03:20:52.108Z,7.69
2018-10-02T03:21:52.193Z,7.64
2018-10-02T03:22:52.065Z,7.57
2018-10-02T03:23:52.042Z,7.60
2018-10-02T03:24:52.024Z,7.50
2018-10-02T03:25:52.003Z,7.50
2018-10-02T03:26:51.977Z,7.52
2018-10-02T03:27:51.956Z,7.53
2018-10-02T03:28:51.940Z,7.49
2018-10-02T03:29:51.914Z,7.39
2018-10-02T03:30:51.894Z,7.42
2018-10-02T03:31:51.871Z,7.35
2018-10-02T03:32:51.849Z,7.39
2018-10-02T03:33:51.832Z,7.35
2018-10-02T03:34:51.872Z,7.28
2018-10-02T03:35:51.788Z,7.30
2018-10-02T03:36:51.764Z,7.28
2018-10-02T03:37:51.879Z,7.30
2018-10-02T03:38:51.720Z,7.28
2018-10-02T03:39:51.703Z,7.28
2018-10-02T03:40:51.676Z,7.25
2018-10-02T03:41:51.657Z,7.21
2018-10-02T03:42:51.634Z,7.21
2018-10-02T03:43:51.611Z,7.17
2018-10-02T03:44:51.589Z,7.21
2018-10-02T03:45:51.568Z,7.23
2018-10-02T03:46:51.547Z,7.24
2018-10-02T03:47:51.523Z,7.28
2018-10-02T03:48:51.595Z,7.25
2018-10-02T03:49:51.482Z,7.30
2018-10-02T03:50:51.463Z,7.25
2018-10-02T03:51:51.439Z,7.28
2018-10-02T03:52:51.418Z,7.25
2018-10-02T03:53:51.398Z,7.23
2018-10-02T03:54:51.377Z,7.28
2018-10-02T03:55:51.355Z,7.15
2018-10-02T03:56:51.329Z,7.10
2018-10-02T03:57:51.308Z,7.09
2018-10-02T03:58:51.287Z,7.17
2018-10-02T03:59:51.269Z,7.09
2018-10-02T04:00:51.243Z,7.07
2018-10-02T04:01:51.229Z,7.07
2018-10-02T04:02:51.198Z,7.03
2018-10-02T04:03:51.179Z,7.10
2018-10-02T04:04:51.162Z,7.09
2018-10-02T04:05:51.135Z,7.10
2018-10-02T04:06:51.114Z,7.20
2018-10-02T04:07:51.091Z,7.15
2018-10-02T04:08:51.082Z,7.10
2018-10-02T04:09:51.048Z,7.12
2018-10-02T04:10:51.029Z,7.12
2018-10-02T04:11:51.006Z,7.12
2018-10-02T04:12:50.983Z,7.09
2018-10-02T04:13:50.965Z,7.07
2018-10-02T04:14:50.941Z,7.07
2018-10-02T04:15:50.919Z,7.09
2018-10-02T04:16:50.898Z,7.05
2018-10-02T04:17:50.871Z,7.07
2018-10-02T04:18:50.853Z,7.02
2018-10-02T04:19:50.829Z,7.06
2018-10-02T04:20:50.908Z,7.07
2018-10-02T04:21:50.786Z,6.99
2018-10-02T04:22:50.763Z,7.10
2018-10-02T04:23:50.742Z,7.05
2018-10-02T04:24:50.727Z,7.07
2018-10-02T04:25:50.701Z,7.05
2018-10-02T04:26:50.679Z,7.10
2018-10-02T04:27:50.687Z,6.99
2018-10-02T04:28:50.635Z,7.03
2018-10-02T04:29:50.613Z,7.06
2018-10-02T04:30:50.593Z,7.05
2018-10-02T04:31:50.568Z,7.05
2018-10-02T04:32:50.557Z,7.03
2018-10-02T04:33:50.597Z,7.03
2018-10-02T04:34:50.507Z,6.99
2018-10-02T04:35:50.487Z,6.99
2018-10-02T04:36:50.464Z,6.95
2018-10-02T04:37:50.441Z,6.88
2018-10-02T04:38:50.419Z,6.92
2018-10-02T04:39:50.406Z,6.91
2018-10-02T04:40:50.379Z,6.89
2018-10-02T04:41:50.355Z,6.85
2018-10-02T04:42:50.333Z,6.85
2018-10-02T04:43:50.312Z,6.76
2018-10-02T04:44:50.286Z,6.87
2018-10-02T04:45:50.277Z,6.85
2018-10-02T04:46:50.277Z,6.85
2018-10-02T04:47:50.230Z,6.87
2018-10-02T04:48:50.198Z,6.85
2018-10-02T04:49:50.177Z,6.80
2018-10-02T04:50:50.164Z,6.91
2018-10-02T04:51:50.135Z,6.77
2018-10-02T04:52:50.118Z,6.77
2018-10-02T04:53:50.093Z,6.71
2018-10-02T04:54:50.076Z,6.84
2018-10-02T04:55:50.131Z,6.80
2018-10-02T04:56:50.027Z,6.85
2018-10-02T04:57:50.005Z,6.85
2018-10-02T04:58:49.989Z,6.84
2018-10-02T04:59:49.959Z,6.87
2018-10-02T05:00:49.938Z,6.91
2018-10-02T05:01:49.914Z,6.88
2018-10-02T05:02:49.893Z,6.73
2018-10-02T05:03:49.875Z,6.80
2018-10-02T05:04:49.855Z,6.76
2018-10-02T05:05:49.845Z,6.71
2018-10-02T05:06:49.810Z,6.71
2018-10-02T05:07:49.784Z,6.76
2018-10-02T05:08:49.859Z,6.73
2018-10-02T05:09:49.743Z,6.73
2018-10-02T05:10:49.721Z,6.77
2018-10-02T05:11:49.700Z,6.81
2018-10-02T05:12:49.700Z,6.70
2018-10-02T05:13:49.656Z,6.73
2018-10-02T05:14:49.990Z,6.71
2018-10-02T05:15:49.611Z,6.76
2018-10-02T05:16:49.591Z,6.71
2018-10-02T05:17:49.571Z,6.74
2018-10-02T05:18:49.552Z,6.84
2018-10-02T05:19:49.529Z,6.71
2018-10-02T05:20:49.588Z,6.71
2018-10-02T05:21:49.490Z,6.76
2018-10-02T05:22:49.459Z,6.69
2018-10-02T05:23:49.434Z,6.71
2018-10-02T05:24:49.423Z,6.81
2018-10-02T05:25:49.397Z,6.85
2018-10-02T05:26:49.371Z,6.85
2018-10-02T05:27:49.400Z,6.94
2018-10-02T05:28:49.332Z,6.92
2018-10-02T05:29:49.305Z,6.91
2018-10-02T05:30:49.282Z,6.89
2018-10-02T05:31:49.264Z,6.87
2018-10-02T05:32:49.245Z,6.88
2018-10-02T05:33:49.218Z,6.95
2018-10-02T05:34:49.200Z,6.91
2018-10-02T05:35:49.177Z,6.92
2018-10-02T05:36:49.153Z,6.87
2018-10-02T05:37:49.130Z,6.91
2018-10-02T05:38:49.109Z,6.91
2018-10-02T05:39:49.084Z,6.91
2018-10-02T05:40:49.078Z,6.91
2018-10-02T05:41:49.041Z,6.87
2018-10-02T05:42:49.091Z,7.03
2018-10-02T05:43:49.007Z,6.94
2018-10-02T05:44:48.977Z,7.10
2018-10-02T05:45:48.958Z,6.97
2018-10-02T05:46:48.936Z,6.89
2018-10-02T05:47:48.914Z,6.95
2018-10-02T05:48:48.892Z,6.92
2018-10-02T05:49:48.868Z,6.94
2018-10-02T05:50:48.843Z,6.85
2018-10-02T05:51:48.825Z,6.92
2018-10-02T05:52:48.802Z,6.85
2018-10-02T05:53:48.780Z,6.73
2018-10-02T05:54:48.761Z,6.85
2018-10-02T05:55:48.739Z,6.87
2018-10-02T05:56:48.716Z,6.85
2018-10-02T05:57:48.694Z,6.74
2018-10-02T05:58:48.670Z,6.87
2018-10-02T05:59:48.653Z,6.85
2018-10-02T06:00:48.629Z,6.84
2018-10-02T06:01:48.605Z,6.85
2018-10-02T06:02:48.586Z,7.02
2018-10-02T06:03:48.595Z,6.98
2018-10-02T06:04:48.538Z,6.94
2018-10-02T06:05:48.521Z,7.03
2018-10-02T06:06:48.496Z,6.99
2018-10-02T06:07:48.475Z,6.99
2018-10-02T06:08:48.464Z,6.99
2018-10-02T06:09:48.495Z,6.92
2018-10-02T06:10:48.412Z,6.89
2018-10-02T06:11:48.389Z,6.85
2018-10-02T06:12:48.370Z,6.85
2018-10-02T06:13:48.344Z,6.92
2018-10-02T06:14:48.319Z,6.97
2018-10-02T06:15:48.305Z,7.03
2018-10-02T06:16:48.284Z,6.99
2018-10-02T06:17:48.257Z,7.15
2018-10-02T06:18:48.344Z,7.20
2018-10-02T06:19:48.214Z,7.28
2018-10-02T06:20:48.189Z,7.23
2018-10-02T06:21:48.170Z,7.31
2018-10-02T06:22:48.145Z,7.31
2018-10-02T06:23:48.123Z,7.37
2018-10-02T06:24:48.335Z,7.48
2018-10-02T06:25:48.083Z,7.49
2018-10-02T06:26:48.059Z,7.50
2018-10-02T06:27:48.037Z,7.48
2018-10-02T06:28:48.014Z,7.49
2018-10-02T06:29:47.996Z,7.49
2018-10-02T06:30:47.971Z,7.50
2018-10-02T06:31:47.945Z,7.50
2018-10-02T06:32:47.948Z,7.50
2018-10-02T06:33:47.908Z,7.40
2018-10-02T06:34:47.882Z,7.53
2018-10-02T06:35:47.865Z,7.50
2018-10-02T06:36:47.892Z,7.53
2018-10-02T06:37:47.817Z,7.57
2018-10-02T06:38:47.807Z,7.67
2018-10-02T06:39:47.784Z,7.60
2018-10-02T06:40:47.759Z,7.69
2018-10-02T06:41:47.734Z,7.75
2018-10-02T06:42:47.714Z,7.87
2018-10-02T06:43:47.835Z,7.83
2018-10-02T06:44:47.832Z,7.85
2018-10-02T06:45:47.647Z,7.90
2018-10-02T06:46:47.625Z,7.87
2018-10-02T06:47:47.602Z,8.05
2018-10-02T06:48:47.583Z,7.97
2018-10-02T06:49:47.563Z,8.05
2018-10-02T06:50:47.600Z,8.08
2018-10-02T06:51:47.644Z,8.10
2018-10-02T06:52:47.641Z,8.25
2018-10-02T06:53:47.473Z,8.18
2018-10-02T06:54:47.465Z,8.26
2018-10-02T06:55:47.435Z,8.38
2018-10-02T06:56:47.410Z,8.41
2018-10-02T06:57:47.387Z,8.45
2018-10-02T06:58:47.368Z,8.53
2018-10-02T06:59:47.344Z,8.63
2018-10-02T07:00:47.335Z,8.76
2018-10-02T07:01:47.303Z,8.77
2018-10-02T07:02:47.316Z,8.95
2018-10-02T07:03:47.263Z,9.10
2018-10-02T07:04:47.237Z,9.20
2018-10-02T07:05:47.215Z,9.21
2018-10-02T07:06:47.254Z,9.33
2018-10-02T07:07:47.177Z,9.42
2018-10-02T07:08:47.169Z,9.53
2018-10-02T07:09:47.137Z,9.64
2018-10-02T07:10:47.111Z,9.74
2018-10-02T07:11:47.089Z,9.89
2018-10-02T07:12:47.070Z,9.97
2018-10-02T07:13:47.045Z,10.14
2018-10-02T07:14:47.037Z,10.23
2018-10-02T07:15:47.004Z,10.25
2018-10-02T07:16:46.985Z,10.38
2018-10-02T07:17:46.968Z,10.56
2018-10-02T07:18:46.941Z,10.82
2018-10-02T07:19:46.925Z,10.89
2018-10-02T07:20:46.947Z,11.02
2018-10-02T07:21:46.879Z,11.14
2018-10-02T07:22:46.858Z,11.10
2018-10-02T07:23:46.837Z,11.18
2018-10-02T07:24:46.827Z,11.24
2018-10-02T07:25:46.801Z,11.14
2018-10-02T07:26:46.913Z,11.14
2018-10-02T07:27:46.897Z,11.03
2018-10-02T07:28:46.743Z,11.00
2018-10-02T07:29:46.721Z,11.02
2018-10-02T07:30:46.731Z,10.91
2018-10-02T07:31:46.676Z,10.94
2018-10-02T07:32:46.673Z,10.88
2018-10-02T07:33:46.659Z,10.89
2018-10-02T07:34:46.625Z,10.91
2018-10-02T07:35:46.599Z,10.86
2018-10-02T07:36:46.596Z,10.84
2018-10-02T07:37:46.555Z,10.91
2018-10-02T07:38:46.580Z,10.91
2018-10-02T07:39:46.523Z,10.88
2018-10-02T07:40:46.500Z,10.89
2018-10-02T07:41:46.521Z,10.86
2018-10-02T07:42:46.469Z,10.89
2018-10-02T07:43:49.488Z,10.96
2018-10-02T07:44:46.468Z,10.89
2018-10-02T07:45:46.397Z,10.92
2018-10-02T07:46:46.380Z,10.99
2018-10-02T07:47:46.368Z,10.94
2018-10-02T07:48:46.338Z,10.92
2018-10-02T07:49:46.326Z,10.92
2018-10-02T07:50:46.348Z,11.00
2018-10-02T07:51:46.281Z,11.22
2018-10-02T07:52:46.259Z,11.32
2018-10-02T07:53:46.245Z,11.40
2018-10-02T07:54:46.223Z,11.40
2018-10-02T07:55:46.208Z,11.46
2018-10-02T07:56:46.246Z,11.47
2018-10-02T07:57:46.165Z,11.54
2018-10-02T07:58:46.145Z,11.62
2018-10-02T07:59:46.222Z,11.64
2018-10-02T08:00:46.101Z,11.70
2018-10-02T08:01:46.085Z,11.90
2018-10-02T08:02:46.112Z,12.04
2018-10-02T08:03:46.045Z,12.10
2018-10-02T08:04:46.096Z,12.10
2018-10-02T08:05:46.167Z,12.09
2018-10-02T08:06:45.994Z,11.95
2018-10-02T08:07:45.969Z,12.04
2018-10-02T08:08:45.951Z,12.19
2018-10-02T08:09:45.937Z,12.29
2018-10-02T08:10:45.910Z,12.37
2018-10-02T08:11:45.946Z,12.38
2018-10-02T08:12:45.870Z,12.39
2018-10-02T08:13:45.857Z,12.45
2018-10-02T08:14:45.894Z,12.39
2018-10-02T08:15:45.816Z,12.35
2018-10-02T08:16:45.793Z,12.27
2018-10-02T08:17:45.785Z,12.42
2018-10-02T08:18:45.766Z,12.54
2018-10-02T08:19:45.785Z,12.64
2018-10-02T08:20:45.730Z,12.71
2018-10-02T08:21:45.705Z,12.92
2018-10-02T08:22:45.682Z,13.20
2018-10-02T08:23:45.668Z,13.45
2018-10-02T08:24:45.662Z,13.63
2018-10-02T08:25:45.635Z,13.59
2018-10-02T08:26:45.801Z,13.63
2018-10-02T08:27:45.593Z,13.57
2018-10-02T08:28:45.574Z,13.51
2018-10-02T08:29:45.587Z,13.44
2018-10-02T08:30:45.532Z,13.28
2018-10-02T08:31:45.521Z,13.12
2018-10-02T08:32:45.528Z,13.01
2018-10-02T08:33:45.482Z,12.92
2018-10-02T08:34:45.464Z,12.86
2018-10-02T08:35:45.578Z,12.67
2018-10-02T08:36:45.430Z,12.59
2018-10-02T08:37:45.413Z,12.59
2018-10-02T08:38:45.445Z,12.62
2018-10-02T08:39:45.372Z,12.64
2018-10-02T08:40:45.359Z,12.72
2018-10-02T08:41:45.394Z,12.72
2018-10-02T08:42:45.321Z,12.70
2018-10-02T08:43:45.309Z,12.83
2018-10-02T08:44:45.379Z,12.85
2018-10-02T08:45:45.263Z,13.00
2018-10-02T08:46:45.259Z,12.92
2018-10-02T08:47:45.261Z,12.65
2018-10-02T08:48:45.213Z,12.65
2018-10-02T08:49:45.192Z,12.56
2018-10-02T08:50:45.212Z,12.45
2018-10-02T08:51:45.189Z,12.41
2018-10-02T08:52:45.192Z,12.35
2018-10-02T08:53:45.156Z,12.38
2018-10-02T08:54:45.105Z,12.38
2018-10-02T08:55:45.089Z,12.38
2018-10-02T08:56:45.076Z,12.29
2018-10-02T08:57:45.053Z,12.32
2018-10-02T08:58:45.038Z,12.38
2018-10-02T08:59:45.014Z,12.39
2018-10-02T09:00:45.032Z,12.41
2018-10-02T09:01:44.978Z,12.42
2018-10-02T09:02:44.959Z,12.38
2018-10-02T09:03:44.945Z,12.37
2018-10-02T09:04:44.926Z,12.38
2018-10-02T09:05:44.909Z,12.42
2018-10-02T09:06:44.905Z,12.50
2018-10-02T09:07:44.877Z,12.56
2018-10-02T09:08:44.857Z,12.50
2018-10-02T09:09:44.834Z,12.47
2018-10-02T09:10:44.817Z,12.42
2018-10-02T09:11:44.799Z,12.42
2018-10-02T09:12:44.790Z,12.42
2018-10-02T09:13:44.806Z,12.31
2018-10-02T09:14:44.748Z,12.35
2018-10-02T09:15:44.867Z,12.35
2018-10-02T09:16:44.837Z,12.38
2018-10-02T09:17:44.695Z,12.47
2018-10-02T09:18:44.680Z,12.45
2018-10-02T09:19:44.661Z,12.42
2018-10-02T09:20:44.680Z,12.50
2018-10-02T09:21:44.658Z,12.57
2018-10-02T09:22:44.601Z,12.47
2018-10-02T09:23:44.635Z,12.46
2018-10-02T09:24:44.567Z,12.38
2018-10-02T09:25:44.548Z,12.47
2018-10-02T09:26:44.533Z,12.45
2018-10-02T09:27:44.685Z,12.50
2018-10-02T09:28:44.524Z,12.56
2018-10-02T09:29:44.477Z,12.57
2018-10-02T09:30:44.542Z,12.65
2018-10-02T09:31:44.440Z,12.72
2018-10-02T09:32:44.424Z,12.74
2018-10-02T09:33:44.453Z,12.74
2018-10-02T09:34:44.387Z,12.79
2018-10-02T09:35:44.370Z,12.82
2018-10-02T09:36:44.398Z,12.89
2018-10-02T09:37:44.336Z,12.95
2018-10-02T09:38:44.314Z,13.28
2018-10-02T09:39:44.429Z,13.51
2018-10-02T09:40:44.283Z,13.60
2018-10-02T09:41:44.260Z,13.81
2018-10-02T09:42:44.359Z,13.99
2018-10-02T09:43:44.245Z,14.29
2018-10-02T09:44:44.211Z,14.64
2018-10-02T09:45:44.194Z,14.96
2018-10-02T09:46:44.176Z,15.27
2018-10-02T09:47:44.157Z,15.47
2018-10-02T09:48:44.195Z,15.57
2018-10-02T09:49:44.161Z,15.56
2018-10-02T09:50:44.124Z,15.53
2018-10-02T09:51:44.202Z,15.47
2018-10-02T09:52:44.077Z,15.49
2018-10-02T09:53:44.065Z,15.34
2018-10-02T09:54:44.170Z,15.25
2018-10-02T09:55:44.028Z,15.34
2018-10-02T09:56:44.015Z,15.28
2018-10-02T09:57:43.996Z,15.28
2018-10-02T09:58:44.006Z,15.17
2018-10-02T09:59:43.962Z,15.03
2018-10-02T10:00:43.956Z,15.03
2018-10-02T10:01:43.933Z,14.98
2018-10-02T10:02:44.035Z,14.99
2018-10-02T10:03:43.909Z,15.01
2018-10-02T10:04:43.883Z,15.06
2018-10-02T10:05:43.864Z,15.16
2018-10-02T10:06:43.855Z,15.03
2018-10-02T10:07:43.833Z,14.92
2018-10-02T10:08:43.816Z,14.96
2018-10-02T10:09:43.800Z,14.88
2018-10-02T10:10:43.784Z,14.80
2018-10-02T10:11:43.772Z,14.75
2018-10-02T10:12:43.750Z,14.58
2018-10-02T10:13:43.732Z,14.43
2018-10-02T10:14:43.721Z,14.47
2018-10-02T10:15:43.705Z,14.27
2018-10-02T10:16:43.817Z,14.28
2018-10-02T10:17:43.670Z,14.04
2018-10-02T10:18:43.658Z,14.02
2018-10-02T10:19:43.639Z,13.99
2018-10-02T10:20:43.625Z,13.96
2018-10-02T10:21:43.604Z,13.96
2018-10-02T10:22:43.594Z,13.79
2018-10-02T10:23:43.574Z,13.85
2018-10-02T10:24:43.560Z,13.81
2018-10-02T10:25:43.540Z,13.81
2018-10-02T10:26:43.625Z,13.67
2018-10-02T10:27:43.510Z,13.59
2018-10-02T10:28:43.548Z,13.51
2018-10-02T10:29:43.483Z,13.46
2018-10-02T10:30:43.462Z,13.42
2018-10-02T10:31:43.445Z,13.42
2018-10-02T10:32:43.430Z,13.29
2018-10-02T10:33:43.409Z,13.23
2018-10-02T10:34:43.420Z,13.23
2018-10-02T10:35:43.374Z,13.20
2018-10-02T10:36:43.357Z,13.20
2018-10-02T10:37:43.336Z,13.15
2018-10-02T10:38:43.318Z,13.14
2018-10-02T10:39:43.352Z,13.15
2018-10-02T10:40:43.337Z,13.15
2018-10-02T10:41:43.271Z,13.22
2018-10-02T10:42:43.253Z,13.20
2018-10-02T10:43:43.233Z,13.17
2018-10-02T10:44:43.214Z,13.14
2018-10-02T10:45:43.201Z,13.14
2018-10-02T10:46:43.237Z,13.08
2018-10-02T10:47:43.173Z,13.11
2018-10-02T10:48:43.155Z,13.11
2018-10-02T10:49:43.132Z,13.11
2018-10-02T10:50:43.113Z,13.05
2018-10-02T10:51:43.096Z,13.19
2018-10-02T10:52:43.180Z,13.08
2018-10-02T10:53:43.066Z,13.12
2018-10-02T10:54:43.041Z,13.05
2018-10-02T10:55:43.026Z,12.92
2018-10-02T10:56:43.006Z,12.90
2018-10-02T10:57:42.991Z,12.93
2018-10-02T10:58:43.118Z,12.86
2018-10-02T10:59:42.950Z,12.90
2018-10-02T11:00:42.941Z,12.82
2018-10-02T11:01:42.916Z,12.79
2018-10-02T11:02:42.897Z,12.82
2018-10-02T11:03:42.883Z,12.82
2018-10-02T11:04:42.967Z,12.86
2018-10-02T11:05:42.847Z,12.90
2018-10-02T11:06:42.835Z,12.85
2018-10-02T11:07:42.810Z,12.87
2018-10-02T11:08:42.793Z,12.89
2018-10-02T11:09:42.772Z,12.87
2018-10-02T11:10:42.755Z,12.92
2018-10-02T11:11:42.739Z,12.89
2018-10-02T11:12:42.722Z,12.90
2018-10-02T11:13:42.698Z,12.89
2018-10-02T11:14:42.683Z,12.87
2018-10-02T11:15:42.662Z,12.90
2018-10-02T11:16:42.645Z,12.77
2018-10-02T11:17:42.628Z,12.79
2018-10-02T11:18:42.611Z,12.75
2018-10-02T11:19:42.621Z,12.82
2018-10-02T11:20:42.580Z,12.83
2018-10-02T11:21:42.563Z,12.83
2018-10-02T11:22:42.540Z,12.70
2018-10-02T11:23:42.514Z,12.67
2018-10-02T11:24:42.503Z,12.67
2018-10-02T11:25:42.548Z,12.68
2018-10-02T11:26:42.464Z,12.71
2018-10-02T11:27:42.444Z,12.74
2018-10-02T11:28:42.535Z,12.71
2018-10-02T11:29:42.471Z,12.68
2018-10-02T11:30:42.388Z,12.60
2018-10-02T11:31:42.440Z,12.54
2018-10-02T11:32:42.356Z,12.47
2018-10-02T11:33:42.333Z,12.41
2018-10-02T11:34:42.318Z,12.34
2018-10-02T11:35:42.295Z,12.38
2018-10-02T11:36:42.282Z,12.34
2018-10-02T11:37:42.351Z,12.19
2018-10-02T11:38:42.244Z,12.28
2018-10-02T11:39:42.228Z,12.19
2018-10-02T11:40:42.204Z,12.16
2018-10-02T11:41:42.196Z,12.10
2018-10-02T11:42:42.168Z,12.04
2018-10-02T11:43:42.224Z,12.01
2018-10-02T11:44:42.303Z,11.90
2018-10-02T11:45:42.117Z,11.91
2018-10-02T11:46:42.094Z,11.80
2018-10-02T11:47:42.077Z,11.86
2018-10-02T11:48:42.058Z,11.75
2018-10-02T11:49:42.121Z,11.73
2018-10-02T11:50:42.019Z,11.64
2018-10-02T11:51:42.008Z,11.69
2018-10-02T11:52:41.980Z,11.65
2018-10-02T11:53:42.044Z,11.69
2018-10-02T11:54:41.940Z,11.65
2018-10-02T11:55:41.954Z,11.65
2018-10-02T11:56:41.916Z,11.58
2018-10-02T11:57:41.987Z,11.67
2018-10-02T11:58:41.865Z,11.55
2018-10-02T11:59:41.849Z,11.47
2018-10-02T12:00:42.019Z,11.39
2018-10-02T12:01:41.812Z,11.39
2018-10-02T12:02:41.857Z,11.36
2018-10-02T12:03:41.812Z,11.33
2018-10-02T12:04:41.755Z,11.35
2018-10-02T12:05:41.734Z,11.35
2018-10-02T12:06:41.724Z,11.29
2018-10-02T12:07:41.694Z,11.25
2018-10-02T12:08:41.687Z,11.24
2018-10-02T12:09:41.666Z,11.37
2018-10-02T12:10:41.636Z,11.35
2018-10-02T12:11:41.769Z,11.39
2018-10-02T12:12:41.596Z,11.44
2018-10-02T12:13:41.624Z,11.36
2018-10-02T12:14:41.573Z,11.47
2018-10-02T12:15:41.547Z,11.33
2018-10-02T12:16:41.517Z,11.46
2018-10-02T12:17:41.499Z,11.35
2018-10-02T12:18:41.478Z,11.35
2018-10-02T12:19:41.608Z,11.39
2018-10-02T12:20:41.440Z,11.33
2018-10-02T12:21:41.422Z,11.32
2018-10-02T12:22:41.403Z,11.33
2018-10-02T12:23:41.444Z,11.24
2018-10-02T12:24:41.366Z,11.33
2018-10-02T12:25:41.343Z,11.19
2018-10-02T12:26:41.323Z,11.22
2018-10-02T12:27:41.305Z,11.11
2018-10-02T12:28:41.284Z,11.17
2018-10-02T12:29:41.263Z,11.17
2018-10-02T12:30:41.243Z,11.06
2018-10-02T12:31:41.236Z,11.04
2018-10-02T12:32:41.201Z,11.00
2018-10-02T12:33:41.188Z,11.00
2018-10-02T12:34:41.168Z,11.02
2018-10-02T12:35:41.143Z,10.99
2018-10-02T12:36:41.130Z,10.94
2018-10-02T12:37:41.102Z,11.02
2018-10-02T12:38:41.115Z,10.99
2018-10-02T12:39:41.066Z,11.03
2018-10-02T12:40:41.049Z,11.03
2018-10-02T12:41:41.029Z,11.03
2018-10-02T12:42:41.008Z,11.00
2018-10-02T12:43:40.987Z,11.03
2018-10-02T12:44:40.968Z,10.99
2018-10-02T12:45:40.949Z,11.03
2018-10-02T12:46:40.925Z,11.09
2018-10-02T12:47:40.910Z,11.11
2018-10-02T12:48:40.890Z,11.17
2018-10-02T12:49:40.866Z,11.10
2018-10-02T12:50:40.847Z,11.04
2018-10-02T12:51:40.828Z,11.09
2018-10-02T12:52:40.966Z,11.10
2018-10-02T12:53:40.785Z,11.15
2018-10-02T12:54:40.768Z,11.07
2018-10-02T12:55:40.750Z,11.09
2018-10-02T12:56:40.734Z,11.07
2018-10-02T12:57:40.709Z,11.07
2018-10-02T12:58:40.703Z,11.09
2018-10-02T12:59:40.674Z,11.15
2018-10-02T13:00:40.645Z,11.15
2018-10-02T13:01:40.623Z,11.19
2018-10-02T13:02:40.605Z,11.11
2018-10-02T13:03:40.587Z,11.14
2018-10-02T13:04:40.565Z,11.03
2018-10-02T13:05:40.548Z,11.17
2018-10-02T13:06:40.528Z,11.11